Indianapolis, IN (46239)

3:15 AM EST on December 14, 2017 (GMT -0500)
Chessington Grove | | Change Station
Active Advisory: Special Statement

Elev 853 ft 39.70 °N, 86.03 °W | Updated 11 seconds ago

Mostly Cloudy
Mostly Cloudy
29.7 °F
Feels Like 20 °F
N
11.2
Wind Variable Wind from NW
Gusts 11.2 mph

Today
High -- | Low -- °F
--% Chance of Precip.
Yesterday
High -- | Low -- °F
Precip. -- in
Pressure 29.78 in
Visibility 10.0 miles
Clouds Overcast 2700 ft
Windchill 20 °F
Dew Point 23 °F
Humidity 75%
Rainfall Not available.
Snow Depth Not available.
7:57 AM 5:20 PM
Waning Crescent, 14% visible
METAR KMQJ 140755Z AUTO 32014G20KT 10SM OVC027 M02/M05 A2978 RMK AO1
Pressure 29.78 in
Visibility 10.0 miles
Clouds Overcast 2700 ft
Windchill 20 °F
Dew Point 23 °F
Humidity 75%
Rainfall Not available.
Snow Depth Not available.
7:57 AM 5:20 PM
Waning Crescent, 14% visible
METAR KMQJ 140755Z AUTO 32014G20KT 10SM OVC027 M02/M05 A2978 RMK AO1

Get Your Daily Forecast Email!

Thanks for signing up!

Be on the lookout for a verification email in your inbox.

You'll start receiving severe weather alerts in your inbox..

×

10-Day Weather Forecast

Almanac

Astronomy

Dec. 14, 2017 Rise Set
Actual Time
Civil Twilight
Nautical Twilight
Astronomical Twilight
Moon
Length of Visible Light
Length of Day
Tomorrow will be .
, % of the Moon is Illuminated

Today's Extremes

State Highs State Lows

Community

WunderPhotos

Category 6

Welcome to Category 6. This is the collective home for Weather Underground's featured writeups by Dr. Jeff Masters (right), Bob Henson (left), Chris Burt, and other regular contributors.

Nearby

Air Quality

  Air Quality AQ Index Pollutant
Not available.

Snow Depth

Station Depth Elevation

Earthquake Activity

City Distance Mag. Time & Date
Minimum magnitude displayed is 2.5.

Coastal Water Temperatures

Place Temperature

Stations

Nearby Weather Stations

Station Location Temp. Windchill Dew Point Humidity Wind Precip. Elev Updated Type
                   

Watches & Warnings

Special Statement
Issued: 11:44 PM EST Dec. 13, 2017 – National Weather Service

... Strong winds gusts will continue overnight...

Strong west-northwest wind gusts of 30 to 40 mph with isolated
gusts approaching 50 mph will gradually diminish across central
Indiana overnight as low pressure tracks away to the east.

The strong winds will cause travel difficulty for high profile
vehicles. Unsecured outdoor objects will also be be blown around.


Ryan

1144 PM EST Wed Dec 13 2017

... Strong winds gusts will continue overnight...

Strong west-northwest wind gusts of 30 to 40 mph with isolated
gusts approaching 50 mph will gradually diminish across central
Indiana overnight as low pressure tracks away to the east.

The strong winds will cause travel difficulty for high profile
vehicles. Unsecured outdoor objects will also be be blown around.


Ryan